sensor_id;sensor_type;location;lat;lon;timestamp;P1;P4;P2;P0;N10;N4;N25;N1;N05;TS
79466;SPS30;68933;49.726;9.226;2023-07-29T00:00:49;2.9;;2.9;2.8;;;;;;
79466;SPS30;68933;49.726;9.226;2023-07-29T00:03:02;2.8;;2.8;2.7;;;;;;
79466;SPS30;68933;49.726;9.226;2023-07-29T00:05:15;2.8;;2.8;2.7;;;;;;
79466;SPS30;68933;49.726;9.226;2023-07-29T00:07:28;2.6;;2.6;2.5;;;;;;
79466;SPS30;68933;49.726;9.226;2023-07-29T00:09:41;2.6;;2.6;2.5;;;;;;
79466;SPS30;68933;49.726;9.226;2023-07-29T00:11:54;2.6;;2.6;2.5;;;;;;
79466;SPS30;68933;49.726;9.226;2023-07-29T00:14:07;2.7;;2.7;2.6;;;;;;
79466;SPS30;68933;49.726;9.226;2023-07-29T00:16:20;2.7;;2.7;2.6;;;;;;
79466;SPS30;68933;49.726;9.226;2023-07-29T00:18:33;3.2;;3.2;3.1;;;;;;
79466;SPS30;68933;49.726;9.226;2023-07-29T00:20:46;3.2;;3.2;3.1;;;;;;
79466;SPS30;68933;49.726;9.226;2023-07-29T00:22:59;3.2;;3.2;3.1;;;;;;
79466;SPS30;68933;49.726;9.226;2023-07-29T00:25:12;3.2;;3.2;3;;;;;;
79466;SPS30;68933;49.726;9.226;2023-07-29T00:27:25;3.2;;3.2;3;;;;;;
79466;SPS30;68933;49.726;9.226;2023-07-29T00:29:38;3.6;;3.6;3.4;;;;;;
79466;SPS30;68933;49.726;9.226;2023-07-29T00:31:51;3.6;;3.6;3.4;;;;;;
79466;SPS30;68933;49.726;9.226;2023-07-29T00:34:04;3.8;;3.8;3.6;;;;;;
79466;SPS30;68933;49.726;9.226;2023-07-29T00:36:17;3.8;;3.8;3.6;;;;;;
79466;SPS30;68933;49.726;9.226;2023-07-29T00:38:30;3.8;;3.8;3.6;;;;;;
79466;SPS30;68933;49.726;9.226;2023-07-29T00:40:43;3.4;;3.4;3.2;;;;;;
79466;SPS30;68933;49.726;9.226;2023-07-29T00:42:56;3.4;;3.4;3.2;;;;;;
79466;SPS30;68933;49.726;9.226;2023-07-29T00:45:09;3.6;;3.6;3.4;;;;;;
79466;SPS30;68933;49.726;9.226;2023-07-29T00:47:22;3.6;;3.6;3.4;;;;;;
79466;SPS30;68933;49.726;9.226;2023-07-29T00:49:35;5;;5;4.8;;;;;;
79466;SPS30;68933;49.726;9.226;2023-07-29T00:51:48;5;;5;4.8;;;;;;
79466;SPS30;68933;49.726;9.226;2023-07-29T00:54:02;5;;5;4.8;;;;;;
79466;SPS30;68933;49.726;9.226;2023-07-29T00:56:14;4.1;;4.1;3.9;;;;;;
79466;SPS30;68933;49.726;9.226;2023-07-29T00:58:27;4.1;;4.1;3.9;;;;;;
79466;SPS30;68933;49.726;9.226;2023-07-29T01:00:40;4.4;;4.4;4.1;;;;;;
79466;SPS30;68933;49.726;9.226;2023-07-29T01:02:53;4.4;;4.4;4.1;;;;;;
79466;SPS30;68933;49.726;9.226;2023-07-29T01:05:06;4.4;;4.4;4.1;;;;;;
79466;SPS30;68933;49.726;9.226;2023-07-29T01:07:21;3.7;;3.7;3.5;;;;;;
79466;SPS30;68933;49.726;9.226;2023-07-29T01:09:33;3.7;;3.7;3.5;;;;;;
79466;SPS30;68933;49.726;9.226;2023-07-29T01:11:46;3.5;;3.5;3.4;;;;;;
79466;SPS30;68933;49.726;9.226;2023-07-29T01:14:00;3.5;;3.5;3.4;;;;;;
79466;SPS30;68933;49.726;9.226;2023-07-29T01:16:20;3.5;;3.5;3.3;;;;;;
79466;SPS30;68933;49.726;9.226;2023-07-29T01:18:26;3.5;;3.5;3.3;;;;;;
79466;SPS30;68933;49.726;9.226;2023-07-29T01:20:38;3.5;;3.5;3.3;;;;;;
79466;SPS30;68933;49.726;9.226;2023-07-29T01:22:50;3.1;;3.1;3;;;;;;
79466;SPS30;68933;49.726;9.226;2023-07-29T01:25:06;3.1;;3.1;3;;;;;;
79466;SPS30;68933;49.726;9.226;2023-07-29T01:27:16;2.3;;2.3;2.2;;;;;;
79466;SPS30;68933;49.726;9.226;2023-07-29T01:29:29;2.3;;2.3;2.2;;;;;;
79466;SPS30;68933;49.726;9.226;2023-07-29T01:31:43;3;;3;2.8;;;;;;
79466;SPS30;68933;49.726;9.226;2023-07-29T01:33:56;3;;3;2.8;;;;;;
79466;SPS30;68933;49.726;9.226;2023-07-29T01:36:11;3;;3;2.8;;;;;;
79466;SPS30;68933;49.726;9.226;2023-07-29T01:38:23;2.7;;2.7;2.6;;;;;;
79466;SPS30;68933;49.726;9.226;2023-07-29T01:40:34;2.7;;2.7;2.6;;;;;;
79466;SPS30;68933;49.726;9.226;2023-07-29T01:42:47;2.6;;2.6;2.5;;;;;;
79466;SPS30;68933;49.726;9.226;2023-07-29T01:45:00;2.6;;2.6;2.5;;;;;;
79466;SPS30;68933;49.726;9.226;2023-07-29T01:47:13;2.6;;2.6;2.5;;;;;;
79466;SPS30;68933;49.726;9.226;2023-07-29T01:49:26;2.6;;2.6;2.5;;;;;;
79466;SPS30;68933;49.726;9.226;2023-07-29T01:51:39;2.8;;2.8;2.6;;;;;;
79466;SPS30;68933;49.726;9.226;2023-07-29T01:53:52;2.8;;2.8;2.6;;;;;;
79466;SPS30;68933;49.726;9.226;2023-07-29T01:56:05;2.8;;2.8;2.6;;;;;;
79466;SPS30;68933;49.726;9.226;2023-07-29T01:58:18;2.6;;2.6;2.4;;;;;;
79466;SPS30;68933;49.726;9.226;2023-07-29T02:00:32;2.6;;2.6;2.4;;;;;;
79466;SPS30;68933;49.726;9.226;2023-07-29T02:02:44;3;;3;2.9;;;;;;
79466;SPS30;68933;49.726;9.226;2023-07-29T02:04:57;3;;3;2.9;;;;;;
79466;SPS30;68933;49.726;9.226;2023-07-29T02:07:10;3.2;;3.2;3.1;;;;;;
79466;SPS30;68933;49.726;9.226;2023-07-29T02:09:23;3.2;;3.2;3.1;;;;;;
79466;SPS30;68933;49.726;9.226;2023-07-29T02:11:36;3.2;;3.2;3.1;;;;;;
79466;SPS30;68933;49.726;9.226;2023-07-29T02:13:49;2.9;;2.9;2.8;;;;;;
79466;SPS30;68933;49.726;9.226;2023-07-29T02:16:02;2.9;;2.9;2.8;;;;;;
79466;SPS30;68933;49.726;9.226;2023-07-29T02:18:15;9;;9;8.6;;;;;;
79466;SPS30;68933;49.726;9.226;2023-07-29T02:20:28;9;;9;8.6;;;;;;
79466;SPS30;68933;49.726;9.226;2023-07-29T02:22:41;3.9;;3.9;3.7;;;;;;
79466;SPS30;68933;49.726;9.226;2023-07-29T02:24:54;3.9;;3.9;3.7;;;;;;
79466;SPS30;68933;49.726;9.226;2023-07-29T02:27:07;5.3;;5.3;5.1;;;;;;
79466;SPS30;68933;49.726;9.226;2023-07-29T02:29:20;5.3;;5.3;5.1;;;;;;
79466;SPS30;68933;49.726;9.226;2023-07-29T02:31:33;5.3;;5.3;5.1;;;;;;
79466;SPS30;68933;49.726;9.226;2023-07-29T02:33:46;3.5;;3.5;3.4;;;;;;
79466;SPS30;68933;49.726;9.226;2023-07-29T02:35:59;3.5;;3.5;3.4;;;;;;
79466;SPS30;68933;49.726;9.226;2023-07-29T02:38:12;3.2;;3.2;3;;;;;;
79466;SPS30;68933;49.726;9.226;2023-07-29T02:40:25;3.2;;3.2;3;;;;;;
79466;SPS30;68933;49.726;9.226;2023-07-29T02:42:38;3;;3;2.8;;;;;;
79466;SPS30;68933;49.726;9.226;2023-07-29T02:44:51;3;;3;2.8;;;;;;
79466;SPS30;68933;49.726;9.226;2023-07-29T02:47:04;2.9;;2.9;2.8;;;;;;
79466;SPS30;68933;49.726;9.226;2023-07-29T02:49:17;2.9;;2.9;2.8;;;;;;
79466;SPS30;68933;49.726;9.226;2023-07-29T02:51:30;3;;3;2.8;;;;;;
79466;SPS30;68933;49.726;9.226;2023-07-29T02:53:43;3;;3;2.8;;;;;;
79466;SPS30;68933;49.726;9.226;2023-07-29T02:55:56;3;;3;2.8;;;;;;
79466;SPS30;68933;49.726;9.226;2023-07-29T02:58:09;3;;3;2.9;;;;;;
79466;SPS30;68933;49.726;9.226;2023-07-29T03:00:22;3;;3;2.9;;;;;;
79466;SPS30;68933;49.726;9.226;2023-07-29T03:02:35;2.9;;2.9;2.8;;;;;;
79466;SPS30;68933;49.726;9.226;2023-07-29T03:04:48;2.9;;2.9;2.8;;;;;;
79466;SPS30;68933;49.726;9.226;2023-07-29T03:07:01;3.1;;3.1;2.9;;;;;;
79466;SPS30;68933;49.726;9.226;2023-07-29T03:09:14;3.1;;3.1;2.9;;;;;;
79466;SPS30;68933;49.726;9.226;2023-07-29T03:11:27;3.2;;3.2;3.1;;;;;;
79466;SPS30;68933;49.726;9.226;2023-07-29T03:13:40;3.2;;3.2;3.1;;;;;;
79466;SPS30;68933;49.726;9.226;2023-07-29T03:15:53;3.2;;3.2;3.1;;;;;;
79466;SPS30;68933;49.726;9.226;2023-07-29T03:18:06;3.2;;3.2;3.1;;;;;;
79466;SPS30;68933;49.726;9.226;2023-07-29T03:20:19;3.2;;3.2;3.1;;;;;;
79466;SPS30;68933;49.726;9.226;2023-07-29T03:22:32;3.1;;3.1;3;;;;;;
79466;SPS30;68933;49.726;9.226;2023-07-29T03:24:45;3.1;;3.1;3;;;;;;
79466;SPS30;68933;49.726;9.226;2023-07-29T03:26:58;3;;3;2.9;;;;;;
79466;SPS30;68933;49.726;9.226;2023-07-29T03:29:11;3;;3;2.9;;;;;;
79466;SPS30;68933;49.726;9.226;2023-07-29T03:31:24;3;;3;2.9;;;;;;
79466;SPS30;68933;49.726;9.226;2023-07-29T03:33:37;3.1;;3.1;2.9;;;;;;
79466;SPS30;68933;49.726;9.226;2023-07-29T03:35:50;3.1;;3.1;2.9;;;;;;
79466;SPS30;68933;49.726;9.226;2023-07-29T03:38:03;2.6;;2.6;2.5;;;;;;
79466;SPS30;68933;49.726;9.226;2023-07-29T03:40:16;2.6;;2.6;2.5;;;;;;
79466;SPS30;68933;49.726;9.226;2023-07-29T03:42:29;2.6;;2.6;2.5;;;;;;
79466;SPS30;68933;49.726;9.226;2023-07-29T03:44:42;2.5;;2.5;2.4;;;;;;
79466;SPS30;68933;49.726;9.226;2023-07-29T03:46:55;2.5;;2.5;2.4;;;;;;
79466;SPS30;68933;49.726;9.226;2023-07-29T03:49:08;2.6;;2.6;2.4;;;;;;
79466;SPS30;68933;49.726;9.226;2023-07-29T03:51:21;2.6;;2.6;2.4;;;;;;
79466;SPS30;68933;49.726;9.226;2023-07-29T03:53:34;2.7;;2.7;2.6;;;;;;
79466;SPS30;68933;49.726;9.226;2023-07-29T03:55:47;2.7;;2.7;2.6;;;;;;
79466;SPS30;68933;49.726;9.226;2023-07-29T03:58:00;2.7;;2.7;2.6;;;;;;
79466;SPS30;68933;49.726;9.226;2023-07-29T04:00:14;2.3;;2.3;2.2;;;;;;
79466;SPS30;68933;49.726;9.226;2023-07-29T04:02:26;2.3;;2.3;2.2;;;;;;
79466;SPS30;68933;49.726;9.226;2023-07-29T04:04:39;2.4;;2.4;2.3;;;;;;
79466;SPS30;68933;49.726;9.226;2023-07-29T04:06:52;2.4;;2.4;2.3;;;;;;
79466;SPS30;68933;49.726;9.226;2023-07-29T04:09:05;2.7;;2.7;2.6;;;;;;
79466;SPS30;68933;49.726;9.226;2023-07-29T04:11:18;2.7;;2.7;2.6;;;;;;
79466;SPS30;68933;49.726;9.226;2023-07-29T04:13:31;2.7;;2.7;2.6;;;;;;
79466;SPS30;68933;49.726;9.226;2023-07-29T04:15:44;2.8;;2.8;2.7;;;;;;
79466;SPS30;68933;49.726;9.226;2023-07-29T04:17:57;2.8;;2.8;2.7;;;;;;
79466;SPS30;68933;49.726;9.226;2023-07-29T04:20:11;2.5;;2.5;2.4;;;;;;
79466;SPS30;68933;49.726;9.226;2023-07-29T04:22:23;2.5;;2.5;2.4;;;;;;
79466;SPS30;68933;49.726;9.226;2023-07-29T04:24:36;2.5;;2.5;2.4;;;;;;
79466;SPS30;68933;49.726;9.226;2023-07-29T04:26:49;2.3;;2.3;2.2;;;;;;
79466;SPS30;68933;49.726;9.226;2023-07-29T04:29:02;2.3;;2.3;2.2;;;;;;
79466;SPS30;68933;49.726;9.226;2023-07-29T04:31:15;2.4;;2.4;2.3;;;;;;
79466;SPS30;68933;49.726;9.226;2023-07-29T04:33:28;2.4;;2.4;2.3;;;;;;
79466;SPS30;68933;49.726;9.226;2023-07-29T04:35:41;2.4;;2.4;2.3;;;;;;
79466;SPS30;68933;49.726;9.226;2023-07-29T04:37:54;2.4;;2.4;2.3;;;;;;
79466;SPS30;68933;49.726;9.226;2023-07-29T04:40:08;2.4;;2.4;2.3;;;;;;
79466;SPS30;68933;49.726;9.226;2023-07-29T04:42:20;2.6;;2.6;2.5;;;;;;
79466;SPS30;68933;49.726;9.226;2023-07-29T04:44:33;2.6;;2.6;2.5;;;;;;
79466;SPS30;68933;49.726;9.226;2023-07-29T04:46:46;2.6;;2.6;2.4;;;;;;
79466;SPS30;68933;49.726;9.226;2023-07-29T04:48:59;2.6;;2.6;2.4;;;;;;
79466;SPS30;68933;49.726;9.226;2023-07-29T04:51:12;2.3;;2.3;2.2;;;;;;
79466;SPS30;68933;49.726;9.226;2023-07-29T04:53:25;2.3;;2.3;2.2;;;;;;
79466;SPS30;68933;49.726;9.226;2023-07-29T04:55:40;2.4;;2.4;2.3;;;;;;
79466;SPS30;68933;49.726;9.226;2023-07-29T04:57:51;2.4;;2.4;2.3;;;;;;
79466;SPS30;68933;49.726;9.226;2023-07-29T05:00:05;2.4;;2.4;2.3;;;;;;
79466;SPS30;68933;49.726;9.226;2023-07-29T05:02:17;2.5;;2.5;2.4;;;;;;
79466;SPS30;68933;49.726;9.226;2023-07-29T05:04:30;2.5;;2.5;2.4;;;;;;
79466;SPS30;68933;49.726;9.226;2023-07-29T05:06:43;2;;2;1.9;;;;;;
79466;SPS30;68933;49.726;9.226;2023-07-29T05:08:56;2;;2;1.9;;;;;;
79466;SPS30;68933;49.726;9.226;2023-07-29T05:11:09;2.3;;2.3;2.2;;;;;;
79466;SPS30;68933;49.726;9.226;2023-07-29T05:13:23;2.3;;2.3;2.2;;;;;;
79466;SPS30;68933;49.726;9.226;2023-07-29T05:15:35;2.3;;2.3;2.2;;;;;;
79466;SPS30;68933;49.726;9.226;2023-07-29T05:17:48;2.3;;2.3;2.1;;;;;;
79466;SPS30;68933;49.726;9.226;2023-07-29T05:20:01;2.3;;2.3;2.1;;;;;;
79466;SPS30;68933;49.726;9.226;2023-07-29T05:22:14;2.7;;2.7;2.6;;;;;;
79466;SPS30;68933;49.726;9.226;2023-07-29T05:24:27;2.7;;2.7;2.6;;;;;;
79466;SPS30;68933;49.726;9.226;2023-07-29T05:26:40;2.2;;2.2;2.1;;;;;;
79466;SPS30;68933;49.726;9.226;2023-07-29T05:28:53;2.2;;2.2;2.1;;;;;;
79466;SPS30;68933;49.726;9.226;2023-07-29T05:31:06;2.3;;2.3;2.2;;;;;;
79466;SPS30;68933;49.726;9.226;2023-07-29T05:33:19;2.3;;2.3;2.2;;;;;;
79466;SPS30;68933;49.726;9.226;2023-07-29T05:35:33;2.4;;2.4;2.3;;;;;;
79466;SPS30;68933;49.726;9.226;2023-07-29T05:37:45;2.4;;2.4;2.3;;;;;;
79466;SPS30;68933;49.726;9.226;2023-07-29T05:39:58;2.4;;2.4;2.3;;;;;;
79466;SPS30;68933;49.726;9.226;2023-07-29T05:42:11;2.3;;2.3;2.2;;;;;;
79466;SPS30;68933;49.726;9.226;2023-07-29T05:44:24;2.3;;2.3;2.2;;;;;;
79466;SPS30;68933;49.726;9.226;2023-07-29T05:46:37;2.2;;2.2;2.1;;;;;;
79466;SPS30;68933;49.726;9.226;2023-07-29T05:48:50;2.2;;2.2;2.1;;;;;;
79466;SPS30;68933;49.726;9.226;2023-07-29T05:51:03;1.9;;1.9;1.8;;;;;;
79466;SPS30;68933;49.726;9.226;2023-07-29T05:53:16;1.9;;1.9;1.8;;;;;;
79466;SPS30;68933;49.726;9.226;2023-07-29T05:55:29;1.7;;1.7;1.6;;;;;;
79466;SPS30;68933;49.726;9.226;2023-07-29T05:57:42;1.7;;1.7;1.6;;;;;;
79466;SPS30;68933;49.726;9.226;2023-07-29T05:59:55;2.2;;2.2;2.1;;;;;;
79466;SPS30;68933;49.726;9.226;2023-07-29T06:02:08;2.2;;2.2;2.1;;;;;;
79466;SPS30;68933;49.726;9.226;2023-07-29T06:04:21;2.2;;2.2;2.1;;;;;;
79466;SPS30;68933;49.726;9.226;2023-07-29T06:06:34;1.9;;1.9;1.8;;;;;;
79466;SPS30;68933;49.726;9.226;2023-07-29T06:08:47;1.9;;1.9;1.8;;;;;;
79466;SPS30;68933;49.726;9.226;2023-07-29T06:11:00;2.1;;2.1;2;;;;;;
79466;SPS30;68933;49.726;9.226;2023-07-29T06:13:13;2.1;;2.1;2;;;;;;
79466;SPS30;68933;49.726;9.226;2023-07-29T06:15:26;2;;2;1.9;;;;;;
79466;SPS30;68933;49.726;9.226;2023-07-29T06:17:39;2;;2;1.9;;;;;;
79466;SPS30;68933;49.726;9.226;2023-07-29T06:19:52;2.3;;2.3;2.2;;;;;;
79466;SPS30;68933;49.726;9.226;2023-07-29T06:22:05;2.3;;2.3;2.2;;;;;;
79466;SPS30;68933;49.726;9.226;2023-07-29T06:24:18;2.3;;2.3;2.2;;;;;;
79466;SPS30;68933;49.726;9.226;2023-07-29T06:26:31;2.1;;2.1;2;;;;;;
79466;SPS30;68933;49.726;9.226;2023-07-29T06:28:44;2.1;;2.1;2;;;;;;
79466;SPS30;68933;49.726;9.226;2023-07-29T06:30:57;2.1;;2.1;2;;;;;;
79466;SPS30;68933;49.726;9.226;2023-07-29T06:33:10;2.1;;2.1;2;;;;;;
79466;SPS30;68933;49.726;9.226;2023-07-29T06:35:23;1.6;;1.6;1.5;;;;;;
79466;SPS30;68933;49.726;9.226;2023-07-29T06:37:36;1.6;;1.6;1.5;;;;;;
79466;SPS30;68933;49.726;9.226;2023-07-29T06:39:49;1.6;;1.6;1.5;;;;;;
79466;SPS30;68933;49.726;9.226;2023-07-29T06:42:03;1.9;;1.9;1.8;;;;;;
79466;SPS30;68933;49.726;9.226;2023-07-29T06:44:15;1.9;;1.9;1.8;;;;;;
79466;SPS30;68933;49.726;9.226;2023-07-29T06:46:28;1.4;;1.4;1.4;;;;;;
79466;SPS30;68933;49.726;9.226;2023-07-29T06:48:41;1.4;;1.4;1.4;;;;;;
79466;SPS30;68933;49.726;9.226;2023-07-29T06:50:54;1.4;;1.4;1.4;;;;;;
79466;SPS30;68933;49.726;9.226;2023-07-29T06:53:08;2;;2;1.9;;;;;;
79466;SPS30;68933;49.726;9.226;2023-07-29T06:55:20;2;;2;1.9;;;;;;
79466;SPS30;68933;49.726;9.226;2023-07-29T06:57:33;1.5;;1.5;1.4;;;;;;
79466;SPS30;68933;49.726;9.226;2023-07-29T06:59:46;1.5;;1.5;1.4;;;;;;
79466;SPS30;68933;49.726;9.226;2023-07-29T07:01:59;1.5;;1.5;1.4;;;;;;
79466;SPS30;68933;49.726;9.226;2023-07-29T07:04:12;1.5;;1.5;1.4;;;;;;
79466;SPS30;68933;49.726;9.226;2023-07-29T07:06:25;1.5;;1.5;1.4;;;;;;
79466;SPS30;68933;49.726;9.226;2023-07-29T07:08:38;1.3;;1.3;1.2;;;;;;
79466;SPS30;68933;49.726;9.226;2023-07-29T07:10:51;1.3;;1.3;1.2;;;;;;
79466;SPS30;68933;49.726;9.226;2023-07-29T07:13:04;1.3;;1.3;1.2;;;;;;
79466;SPS30;68933;49.726;9.226;2023-07-29T07:15:17;1.3;;1.3;1.2;;;;;;
79466;SPS30;68933;49.726;9.226;2023-07-29T07:17:30;1.3;;1.3;1.2;;;;;;
79466;SPS30;68933;49.726;9.226;2023-07-29T07:19:43;1.1;;1.1;1.1;;;;;;
79466;SPS30;68933;49.726;9.226;2023-07-29T07:21:56;1.1;;1.1;1.1;;;;;;
79466;SPS30;68933;49.726;9.226;2023-07-29T07:24:09;1.3;;1.3;1.3;;;;;;
79466;SPS30;68933;49.726;9.226;2023-07-29T07:26:22;1.3;;1.3;1.3;;;;;;
79466;SPS30;68933;49.726;9.226;2023-07-29T07:28:35;0.6;;0.6;0.6;;;;;;
79466;SPS30;68933;49.726;9.226;2023-07-29T07:30:48;0.6;;0.6;0.6;;;;;;
79466;SPS30;68933;49.726;9.226;2023-07-29T07:33:01;0.6;;0.6;0.6;;;;;;
79466;SPS30;68933;49.726;9.226;2023-07-29T07:35:14;0.7;;0.7;0.7;;;;;;
79466;SPS30;68933;49.726;9.226;2023-07-29T07:37:27;0.7;;0.7;0.7;;;;;;
79466;SPS30;68933;49.726;9.226;2023-07-29T07:39:40;0.8;;0.8;0.8;;;;;;
79466;SPS30;68933;49.726;9.226;2023-07-29T07:41:53;0.8;;0.8;0.8;;;;;;
79466;SPS30;68933;49.726;9.226;2023-07-29T07:44:07;0.9;;0.9;0.9;;;;;;
79466;SPS30;68933;49.726;9.226;2023-07-29T07:46:19;0.9;;0.9;0.9;;;;;;
79466;SPS30;68933;49.726;9.226;2023-07-29T07:48:32;0.9;;0.9;0.9;;;;;;
79466;SPS30;68933;49.726;9.226;2023-07-29T07:50:45;0.6;;0.6;0.6;;;;;;
79466;SPS30;68933;49.726;9.226;2023-07-29T07:52:58;0.6;;0.6;0.6;;;;;;
79466;SPS30;68933;49.726;9.226;2023-07-29T07:55:11;1.1;;1.1;1;;;;;;
79466;SPS30;68933;49.726;9.226;2023-07-29T07:57:24;1.1;;1.1;1;;;;;;
79466;SPS30;68933;49.726;9.226;2023-07-29T07:59:37;0.8;;0.8;0.8;;;;;;
79466;SPS30;68933;49.726;9.226;2023-07-29T08:01:50;0.8;;0.8;0.8;;;;;;
79466;SPS30;68933;49.726;9.226;2023-07-29T08:04:03;0.7;;0.7;0.7;;;;;;
79466;SPS30;68933;49.726;9.226;2023-07-29T08:06:16;0.7;;0.7;0.7;;;;;;
79466;SPS30;68933;49.726;9.226;2023-07-29T08:08:29;0.7;;0.7;0.7;;;;;;
79466;SPS30;68933;49.726;9.226;2023-07-29T08:10:42;0.7;;0.7;0.7;;;;;;
79466;SPS30;68933;49.726;9.226;2023-07-29T08:12:55;0.7;;0.7;0.7;;;;;;
79466;SPS30;68933;49.726;9.226;2023-07-29T08:15:08;0.8;;0.8;0.8;;;;;;
79466;SPS30;68933;49.726;9.226;2023-07-29T08:17:21;0.8;;0.8;0.8;;;;;;
79466;SPS30;68933;49.726;9.226;2023-07-29T08:19:34;0.8;;0.8;0.7;;;;;;
79466;SPS30;68933;49.726;9.226;2023-07-29T08:21:47;0.8;;0.8;0.7;;;;;;
79466;SPS30;68933;49.726;9.226;2023-07-29T08:24:00;1.6;;1.4;1.2;;;;;;
79466;SPS30;68933;49.726;9.226;2023-07-29T08:26:13;1.6;;1.4;1.2;;;;;;
79466;SPS30;68933;49.726;9.226;2023-07-29T08:28:27;1.6;;1.4;1.2;;;;;;
79466;SPS30;68933;49.726;9.226;2023-07-29T08:30:39;1.9;;1.6;1.3;;;;;;
79466;SPS30;68933;49.726;9.226;2023-07-29T08:32:52;1.9;;1.6;1.3;;;;;;
79466;SPS30;68933;49.726;9.226;2023-07-29T08:35:05;2.2;;1.8;1.4;;;;;;
79466;SPS30;68933;49.726;9.226;2023-07-29T08:37:18;2.2;;1.8;1.4;;;;;;
79466;SPS30;68933;49.726;9.226;2023-07-29T08:39:31;1.6;;1.3;1;;;;;;
79466;SPS30;68933;49.726;9.226;2023-07-29T08:41:45;1.6;;1.3;1;;;;;;
79466;SPS30;68933;49.726;9.226;2023-07-29T08:43:59;4.1;;3.4;2.6;;;;;;
79466;SPS30;68933;49.726;9.226;2023-07-29T08:46:10;4.1;;3.4;2.6;;;;;;
79466;SPS30;68933;49.726;9.226;2023-07-29T08:48:26;4.1;;3.4;2.6;;;;;;
79466;SPS30;68933;49.726;9.226;2023-07-29T08:50:36;1.1;;0.9;0.7;;;;;;
79466;SPS30;68933;49.726;9.226;2023-07-29T08:52:49;1.1;;0.9;0.7;;;;;;
79466;SPS30;68933;49.726;9.226;2023-07-29T08:55:03;1.4;;1.2;1;;;;;;
79466;SPS30;68933;49.726;9.226;2023-07-29T08:57:15;1.4;;1.2;1;;;;;;
79466;SPS30;68933;49.726;9.226;2023-07-29T08:59:28;1.2;;1;0.9;;;;;;
79466;SPS30;68933;49.726;9.226;2023-07-29T09:01:41;1.2;;1;0.9;;;;;;
79466;SPS30;68933;49.726;9.226;2023-07-29T09:03:54;0.9;;0.8;0.7;;;;;;
79466;SPS30;68933;49.726;9.226;2023-07-29T09:06:08;0.9;;0.8;0.7;;;;;;
79466;SPS30;68933;49.726;9.226;2023-07-29T09:08:20;0.8;;0.7;0.6;;;;;;
79466;SPS30;68933;49.726;9.226;2023-07-29T09:10:35;0.8;;0.7;0.6;;;;;;
79466;SPS30;68933;49.726;9.226;2023-07-29T09:12:46;0.8;;0.7;0.6;;;;;;
79466;SPS30;68933;49.726;9.226;2023-07-29T09:14:59;0.8;;0.7;0.6;;;;;;
79466;SPS30;68933;49.726;9.226;2023-07-29T09:17:12;0.8;;0.7;0.6;;;;;;
79466;SPS30;68933;49.726;9.226;2023-07-29T09:19:25;0.5;;0.5;0.5;;;;;;
79466;SPS30;68933;49.726;9.226;2023-07-29T09:21:39;0.5;;0.5;0.5;;;;;;
79466;SPS30;68933;49.726;9.226;2023-07-29T09:23:52;0.5;;0.5;0.5;;;;;;
79466;SPS30;68933;49.726;9.226;2023-07-29T09:26:04;1.3;;1.2;1.1;;;;;;
79466;SPS30;68933;49.726;9.226;2023-07-29T09:28:17;1.3;;1.2;1.1;;;;;;
79466;SPS30;68933;49.726;9.226;2023-07-29T09:30:30;0.9;;0.8;0.7;;;;;;
79466;SPS30;68933;49.726;9.226;2023-07-29T09:32:43;0.9;;0.8;0.7;;;;;;
79466;SPS30;68933;49.726;9.226;2023-07-29T09:34:56;0.8;;0.7;0.7;;;;;;
79466;SPS30;68933;49.726;9.226;2023-07-29T09:37:09;0.8;;0.7;0.7;;;;;;
79466;SPS30;68933;49.726;9.226;2023-07-29T09:39:22;0.8;;0.7;0.7;;;;;;
79466;SPS30;68933;49.726;9.226;2023-07-29T09:41:35;1;;0.9;0.9;;;;;;
79466;SPS30;68933;49.726;9.226;2023-07-29T09:43:51;1;;0.9;0.9;;;;;;
79466;SPS30;68933;49.726;9.226;2023-07-29T09:46:02;0.7;;0.7;0.6;;;;;;
79466;SPS30;68933;49.726;9.226;2023-07-29T09:48:14;0.7;;0.7;0.6;;;;;;
79466;SPS30;68933;49.726;9.226;2023-07-29T09:50:28;0.7;;0.7;0.6;;;;;;
79466;SPS30;68933;49.726;9.226;2023-07-29T09:52:40;1.1;;1.1;1.1;;;;;;
79466;SPS30;68933;49.726;9.226;2023-07-29T09:54:54;1.1;;1.1;1.1;;;;;;
79466;SPS30;68933;49.726;9.226;2023-07-29T09:57:06;0.9;;0.9;0.8;;;;;;
79466;SPS30;68933;49.726;9.226;2023-07-29T09:59:19;0.9;;0.9;0.8;;;;;;
79466;SPS30;68933;49.726;9.226;2023-07-29T10:01:32;1.4;;1.4;1.3;;;;;;
79466;SPS30;68933;49.726;9.226;2023-07-29T10:03:45;1.4;;1.4;1.3;;;;;;
79466;SPS30;68933;49.726;9.226;2023-07-29T10:05:59;1.4;;1.4;1.3;;;;;;
79466;SPS30;68933;49.726;9.226;2023-07-29T10:08:11;1.7;;1.7;1.6;;;;;;
79466;SPS30;68933;49.726;9.226;2023-07-29T10:10:24;1.7;;1.7;1.6;;;;;;
79466;SPS30;68933;49.726;9.226;2023-07-29T10:12:39;1.5;;1.5;1.4;;;;;;
79466;SPS30;68933;49.726;9.226;2023-07-29T10:14:50;1.5;;1.5;1.4;;;;;;
79466;SPS30;68933;49.726;9.226;2023-07-29T10:17:04;2.7;;2.7;2.5;;;;;;
79466;SPS30;68933;49.726;9.226;2023-07-29T10:19:16;2.7;;2.7;2.5;;;;;;
79466;SPS30;68933;49.726;9.226;2023-07-29T10:21:29;2.7;;2.7;2.5;;;;;;
79466;SPS30;68933;49.726;9.226;2023-07-29T10:23:43;1.9;;1.9;1.8;;;;;;
79466;SPS30;68933;49.726;9.226;2023-07-29T10:25:57;1.9;;1.9;1.8;;;;;;
79466;SPS30;68933;49.726;9.226;2023-07-29T10:28:08;1.4;;1.4;1.3;;;;;;
79466;SPS30;68933;49.726;9.226;2023-07-29T10:30:21;1.4;;1.4;1.3;;;;;;
79466;SPS30;68933;49.726;9.226;2023-07-29T10:32:34;1.4;;1.4;1.3;;;;;;
79466;SPS30;68933;49.726;9.226;2023-07-29T10:34:47;1.9;;1.9;1.8;;;;;;
79466;SPS30;68933;49.726;9.226;2023-07-29T10:37:00;1.9;;1.9;1.8;;;;;;
79466;SPS30;68933;49.726;9.226;2023-07-29T10:39:13;2.1;;2.1;2;;;;;;
79466;SPS30;68933;49.726;9.226;2023-07-29T10:41:48;2.1;;2.1;2;;;;;;
79466;SPS30;68933;49.726;9.226;2023-07-29T10:43:39;2;;2;1.9;;;;;;
79466;SPS30;68933;49.726;9.226;2023-07-29T10:45:52;2;;2;1.9;;;;;;
79466;SPS30;68933;49.726;9.226;2023-07-29T10:48:06;2;;2;1.9;;;;;;
79466;SPS30;68933;49.726;9.226;2023-07-29T10:50:19;2;;2;1.9;;;;;;
79466;SPS30;68933;49.726;9.226;2023-07-29T10:52:39;2;;2;1.9;;;;;;
79466;SPS30;68933;49.726;9.226;2023-07-29T10:54:45;2.2;;2.2;2.1;;;;;;
79466;SPS30;68933;49.726;9.226;2023-07-29T10:56:57;2.2;;2.2;2.1;;;;;;
79466;SPS30;68933;49.726;9.226;2023-07-29T10:59:52;2.2;;2.2;2.1;;;;;;
79466;SPS30;68933;49.726;9.226;2023-07-29T11:01:28;2.2;;2.2;2.1;;;;;;
79466;SPS30;68933;49.726;9.226;2023-07-29T11:03:36;1.9;;1.9;1.9;;;;;;
79466;SPS30;68933;49.726;9.226;2023-07-29T11:05:50;1.9;;1.9;1.9;;;;;;
79466;SPS30;68933;49.726;9.226;2023-07-29T11:08:02;1.9;;1.9;1.9;;;;;;
79466;SPS30;68933;49.726;9.226;2023-07-29T11:10:16;2.2;;2.2;2.1;;;;;;
79466;SPS30;68933;49.726;9.226;2023-07-29T11:12:44;2.2;;2.2;2.1;;;;;;
79466;SPS30;68933;49.726;9.226;2023-07-29T11:14:41;2;;2;1.9;;;;;;
79466;SPS30;68933;49.726;9.226;2023-07-29T11:16:54;2;;2;1.9;;;;;;
79466;SPS30;68933;49.726;9.226;2023-07-29T11:19:07;2.7;;2.7;2.6;;;;;;
79466;SPS30;68933;49.726;9.226;2023-07-29T11:21:20;2.7;;2.7;2.6;;;;;;
79466;SPS30;68933;49.726;9.226;2023-07-29T11:23:34;2.7;;2.7;2.6;;;;;;
79466;SPS30;68933;49.726;9.226;2023-07-29T11:25:46;2.2;;2.2;2.1;;;;;;
79466;SPS30;68933;49.726;9.226;2023-07-29T11:28:00;2.2;;2.2;2.1;;;;;;
79466;SPS30;68933;49.726;9.226;2023-07-29T11:30:13;2.7;;2.7;2.6;;;;;;
79466;SPS30;68933;49.726;9.226;2023-07-29T11:32:26;2.7;;2.7;2.6;;;;;;
79466;SPS30;68933;49.726;9.226;2023-07-29T11:34:38;2.5;;2.5;2.4;;;;;;
79466;SPS30;68933;49.726;9.226;2023-07-29T11:36:51;2.5;;2.5;2.4;;;;;;
79466;SPS30;68933;49.726;9.226;2023-07-29T11:39:08;2.1;;2.1;2;;;;;;
79466;SPS30;68933;49.726;9.226;2023-07-29T11:41:19;2.1;;2.1;2;;;;;;
79466;SPS30;68933;49.726;9.226;2023-07-29T11:43:34;2.1;;2.1;2;;;;;;
79466;SPS30;68933;49.726;9.226;2023-07-29T11:45:44;2.3;;2.3;2.2;;;;;;
79466;SPS30;68933;49.726;9.226;2023-07-29T11:47:56;2.3;;2.3;2.2;;;;;;
79466;SPS30;68933;49.726;9.226;2023-07-29T11:50:10;2.3;;2.3;2.2;;;;;;
79466;SPS30;68933;49.726;9.226;2023-07-29T11:52:22;2.3;;2.3;2.2;;;;;;
79466;SPS30;68933;49.726;9.226;2023-07-29T11:54:35;2.8;;2.8;2.7;;;;;;
79466;SPS30;68933;49.726;9.226;2023-07-29T11:56:48;2.8;;2.8;2.7;;;;;;
79466;SPS30;68933;49.726;9.226;2023-07-29T11:59:01;2.7;;2.7;2.6;;;;;;
79466;SPS30;68933;49.726;9.226;2023-07-29T12:01:14;2.7;;2.7;2.6;;;;;;
79466;SPS30;68933;49.726;9.226;2023-07-29T12:03:27;2.5;;2.5;2.4;;;;;;
79466;SPS30;68933;49.726;9.226;2023-07-29T12:05:40;2.5;;2.5;2.4;;;;;;
79466;SPS30;68933;49.726;9.226;2023-07-29T12:07:53;2.2;;2.2;2.1;;;;;;
79466;SPS30;68933;49.726;9.226;2023-07-29T12:10:06;2.2;;2.2;2.1;;;;;;
79466;SPS30;68933;49.726;9.226;2023-07-29T12:12:19;2.2;;2.2;2.1;;;;;;
79466;SPS30;68933;49.726;9.226;2023-07-29T12:14:33;2.5;;2.5;2.4;;;;;;
79466;SPS30;68933;49.726;9.226;2023-07-29T12:16:47;2.5;;2.5;2.4;;;;;;
79466;SPS30;68933;49.726;9.226;2023-07-29T12:18:59;2.9;;2.9;2.8;;;;;;
79466;SPS30;68933;49.726;9.226;2023-07-29T12:21:13;2.9;;2.9;2.8;;;;;;
79466;SPS30;68933;49.726;9.226;2023-07-29T12:23:24;2.6;;2.6;2.5;;;;;;
79466;SPS30;68933;49.726;9.226;2023-07-29T12:25:37;2.6;;2.6;2.5;;;;;;
79466;SPS30;68933;49.726;9.226;2023-07-29T12:27:50;2.6;;2.6;2.5;;;;;;
79466;SPS30;68933;49.726;9.226;2023-07-29T12:30:04;2.4;;2.4;2.3;;;;;;
79466;SPS30;68933;49.726;9.226;2023-07-29T12:32:16;2.4;;2.4;2.3;;;;;;
79466;SPS30;68933;49.726;9.226;2023-07-29T12:34:30;2.2;;2.2;2.1;;;;;;
79466;SPS30;68933;49.726;9.226;2023-07-29T12:36:43;2.2;;2.2;2.1;;;;;;
79466;SPS30;68933;49.726;9.226;2023-07-29T12:38:58;1.5;;1.5;1.5;;;;;;
79466;SPS30;68933;49.726;9.226;2023-07-29T12:41:08;1.5;;1.5;1.5;;;;;;